Solomon Sea — WDE5022 — position and weather

sailwx.info

Track history (hours):
 
Tides and Currents Weather Stations Pressure Air Temp Water Temp Dewpoint Dewpoint Depression Visibility Wind Speed Wind Dir Waves Ship Positions

Solomon Sea

Owner: Kirby Offshore Marine, LLC, Staten Island, NY. More information available from US FCC via Universal Licensing System and Coast Guard Vessel Documentation Center.

Last reported at 2018-Jan-12 15:00 UTC. Time now 2018-Jan-18 15:32 UTC.
Position N 40°41' W 074°08'.

Length 29 m; draft 3.5 m.

Type: Towing. MMSI: 367360960.

Date/timePositionNaut miles runAvg speedWind from/ knotsBaromVisibWave heightAir tempDewpointWater temp
2018-Jan-12 15:00N 40°41' W 074°08'0 0.0
2018-Jan-12 14:30N 40°41' W 074°08'1 1.6
2018-Jan-12 14:00N 40°42' W 074°09'1 1.6
2018-Jan-12 13:29N 40°41' W 074°08'0 0.1
2018-Jan-12 13:00N 40°41' W 074°08'0 0.1
2018-Jan-12 12:30N 40°41' W 074°08'0 0.1
2018-Jan-12 12:00N 40°41' W 074°08'1 1.7
2018-Jan-12 11:30N 40°42' W 074°09'0 0.5
2018-Jan-12 11:00N 40°42' W 074°09'1 1.1
2018-Jan-12 10:30N 40°41' W 074°08'2 3.6
2018-Jan-12 10:00N 40°40' W 074°09'3 5.9
2018-Jan-12 09:30N 40°38' W 074°12'3 1.6
2018-Jan-12 07:49N 40°35' W 074°12'1 4.7
2018-Jan-12 07:30N 40°37' W 074°12'3 6.0
2018-Jan-12 07:00N 40°39' W 074°09'4 7.6
2018-Jan-12 06:30N 40°40' W 074°04'4 7.6
2018-Jan-12 06:00N 40°43' W 074°02'4 7.7
2018-Jan-12 05:30N 40°46' W 073°60'0 0.3
2018-Jan-12 05:00N 40°46' W 073°60'3 5.9
2018-Jan-12 04:30N 40°44' W 074°01'3 6.2
2018-Jan-12 04:00N 40°41' W 074°02'3 5.7
2018-Jan-12 03:30N 40°39' W 074°06'4 7.6
2018-Jan-12 03:00N 40°39' W 074°11'4 1.4
2018-Jan-12 00:12N 40°39' W 074°06'1 5.2
2018-Jan-11 23:58N 40°40' W 074°04'3 6.8
2018-Jan-11 23:30N 40°42' W 074°02'4 7.2
2018-Jan-11 22:59N 40°46' W 074°01'0 0.2
2018-Jan-11 22:09N 40°45' W 074°01'110.9
2018-Jan-11 22:00N 40°44' W 074°01'510.2
2018-Jan-11 21:30N 40°39' W 074°04'1 0.0
2018-Jan-11 07:32N 40°39' W 074°05'0 7.8
2018-Jan-11 07:29N 40°39' W 074°05'3 7.0
2018-Jan-11 07:00N 40°42' W 074°02'3 6.7
2018-Jan-11 06:30N 40°45' W 074°01'1 1.8
2018-Jan-11 06:00N 40°46' W 074°00'0 0.3
2018-Jan-11 05:30N 40°46' W 074°00'0 0.1
2018-Jan-11 04:56N 40°46' W 074°00'0 0.1
2018-Jan-11 04:28N 40°46' W 074°00'0 0.1
2018-Jan-11 04:00N 40°46' W 074°00'0 0.3
2018-Jan-11 03:30N 40°46' W 074°00'1 1.8
2018-Jan-11 03:00N 40°45' W 074°01'2 4.9
2018-Jan-11 02:30N 40°43' W 074°01'3 1.2
2018-Jan-10 23:58N 40°41' W 074°04'0 0.2
2018-Jan-10 23:30N 40°41' W 074°04'0 0.1
2018-Jan-10 22:05N 40°41' W 074°05'0 0.2
2018-Jan-10 21:54N 40°41' W 074°05'0 0.3
2018-Jan-10 21:25N 40°41' W 074°04'0 0.1
2018-Jan-10 20:56N 40°41' W 074°04'2 5.4
2018-Jan-10 20:30N 40°42' W 074°02'4 7.6
2018-Jan-10 20:00N 40°46' W 074°00'0 0.2
2018-Jan-10 19:30N 40°46' W 074°00'0 0.1
2018-Jan-10 18:58N 40°46' W 074°00'0 0.1
2018-Jan-10 18:30N 40°46' W 074°00'0 0.1
2018-Jan-10 18:00N 40°46' W 074°00'0 0.1
2018-Jan-10 17:30N 40°46' W 074°00'0 0.8
2018-Jan-10 16:57N 40°46' W 074°01'2 3.9
2018-Jan-10 16:30N 40°44' W 074°01'4 7.1
2018-Jan-10 16:00N 40°40' W 074°03'4 0.4
2018-Jan-10 06:36N 40°41' W 074°08'3 9.8
2018-Jan-10 06:20N 40°39' W 074°09'310.5
2018-Jan-10 06:00N 40°39' W 074°04'2 1.9
2018-Jan-10 05:09N 40°41' W 074°04'1 5.7
2018-Jan-10 05:00N 40°40' W 074°04'3 5.4
2018-Jan-10 04:30N 40°42' W 074°00'3 5.3
2018-Jan-10 04:00N 40°44' W 073°58'1 0.6
2018-Jan-10 02:15N 40°44' W 073°57'1 3.6
2018-Jan-10 02:00N 40°44' W 073°58'2 4.4
2018-Jan-10 01:30N 40°42' W 073°60'3 5.9
2018-Jan-10 01:00N 40°40' W 074°03'2 3.1
2018-Jan-10 00:29N 40°41' W 074°04'0 0.1
2018-Jan-09 23:45N 40°41' W 074°04'0 0.1
2018-Jan-09 23:22N 40°41' W 074°04'0 0.0
2018-Jan-09 23:00N 40°41' W 074°04'0 0.2
2018-Jan-09 21:41N 40°41' W 074°05'0 0.0
2018-Jan-09 21:29N 40°41' W 074°05'0 0.0
2018-Jan-09 21:00N 40°41' W 074°05'0 0.0
2018-Jan-09 20:05N 40°41' W 074°05'0 0.0
2018-Jan-09 19:55N 40°41' W 074°05'0 0.4
2018-Jan-09 19:25N 40°41' W 074°04'3 2.2
2018-Jan-09 17:58N 40°41' W 074°08'4 0.3
2018-Jan-09 05:45N 40°39' W 074°04'2 8.8
2018-Jan-09 05:29N 40°41' W 074°02'5 9.6
2018-Jan-09 05:00N 40°46' W 074°01'0 0.0
2018-Jan-08 16:22N 40°46' W 074°00'410.7
2018-Jan-08 16:00N 40°42' W 074°02'2 1.4
2018-Jan-08 14:22N 40°41' W 074°05'1 3.9
2018-Jan-08 14:00N 40°40' W 074°04'3 0.3
2018-Jan-08 03:05N 40°42' W 074°07'0 6.0
2018-Jan-08 03:00N 40°42' W 074°07'4 1.6
2018-Jan-08 00:26N 40°39' W 074°09'4 7.9
2018-Jan-07 23:58N 40°40' W 074°04'2 2.8
2018-Jan-07 23:25N 40°41' W 074°04'3 7.1
2018-Jan-07 23:00N 40°43' W 074°01'3 1.8
2018-Jan-07 21:34N 40°45' W 074°01'1 7.7
2018-Jan-07 21:30N 40°45' W 074°01'4 7.7
2018-Jan-07 21:00N 40°41' W 074°02'2 0.6
2018-Jan-07 17:47N 40°40' W 074°04'2 6.4
2018-Jan-07 17:30N 40°41' W 074°02'3 6.4
2018-Jan-07 17:00N 40°44' W 074°01'3 4.9
2018-Jan-07 16:29N 40°46' W 073°60'0 0.4
2018-Jan-07 15:23N 40°46' W 074°00'3 7.5
2018-Jan-07 15:00N 40°43' W 074°01'3 1.8
2018-Jan-07 13:11N 40°41' W 074°04'0 0.1
2018-Jan-07 12:57N 40°41' W 074°04'0 0.3
2018-Jan-07 12:29N 40°41' W 074°05'0 0.0
2018-Jan-07 12:00N 40°41' W 074°05'0 0.0
2018-Jan-07 10:21N 40°41' W 074°05'0 0.0
2018-Jan-07 08:21N 40°41' W 074°05'0 0.0
2018-Jan-07 07:57N 40°41' W 074°05'0 0.0
2018-Jan-07 07:25N 40°41' W 074°05'0 0.0
2018-Jan-07 07:00N 40°41' W 074°05'0 0.0
2018-Jan-07 06:29N 40°41' W 074°05'0 0.0
2018-Jan-07 05:59N 40°41' W 074°05'0 0.0
2018-Jan-07 05:25N 40°41' W 074°05'3 0.6
2018-Jan-07 01:14N 40°41' W 074°08'3 3.9
2018-Jan-07 00:21N 40°39' W 074°04'2 4.7
2018-Jan-06 23:59N 40°39' W 074°02'1 2.2
2018-Jan-06 23:18N 40°40' W 074°00'0 0.0
2018-Jan-06 22:57N 40°40' W 074°00'0 0.0
2018-Jan-06 22:27N 40°40' W 074°00'1 2.2
2018-Jan-06 22:00N 40°39' W 074°01'5 0.4
2018-Jan-06 07:24N 40°41' W 074°08'3 4.6
2018-Jan-06 06:49N 40°39' W 074°06'3 8.3
2018-Jan-06 06:30N 40°40' W 074°03'2 4.1
2018-Jan-06 06:00N 40°40' W 074°00'0 0.9
2018-Jan-06 05:30N 40°40' W 074°01'3 5.2
2018-Jan-06 05:00N 40°38' W 074°03'1 1.2
2018-Jan-06 04:21N 40°37' W 074°03'0 0.0
2018-Jan-05 21:35N 40°37' W 074°03'111.5
2018-Jan-05 21:30N 40°38' W 074°04'4 7.5
2018-Jan-05 20:57N 40°40' W 074°09'2 0.6
2018-Jan-05 17:14N 40°42' W 074°09'0 0.0
2018-Jan-05 16:46N 40°42' W 074°09'0 0.0
2018-Jan-05 16:29N 40°42' W 074°09'0 0.0
2018-Jan-05 15:38N 40°42' W 074°09'0 0.0
2018-Jan-05 15:30N 40°42' W 074°09'0 0.0
2018-Jan-05 14:48N 40°42' W 074°09'0 0.0
2018-Jan-05 14:29N 40°42' W 074°09'0 0.0
2018-Jan-05 05:45N 40°42' W 074°09'0 0.0
2018-Jan-05 05:28N 40°42' W 074°09'0 0.0
2018-Jan-05 04:35N 40°42' W 074°09'0 0.0
2018-Jan-05 04:26N 40°42' W 074°09'0 0.0
2018-Jan-05 03:36N 40°42' W 074°09'0 0.0
2018-Jan-05 03:30N 40°42' W 074°09'0 0.0
2018-Jan-05 02:55N 40°42' W 074°09'0 0.0
2018-Jan-05 02:22N 40°42' W 074°09'0 0.0
2018-Jan-05 01:55N 40°42' W 074°09'1 0.1
2018-Jan-04 16:07N 40°42' W 074°08'1 8.0
2018-Jan-04 16:00N 40°41' W 074°09'3 5.6
2018-Jan-04 15:29N 40°39' W 074°06'4 8.2
2018-Jan-04 15:00N 40°42' W 074°02'5 8.1
2018-Jan-04 14:27N 40°46' W 074°00'1 0.8
2018-Jan-04 13:43N 40°46' W 073°60'0 0.5
2018-Jan-04 13:30N 40°46' W 073°60'4 7.8
2018-Jan-04 13:00N 40°43' W 074°02'4 8.2
2018-Jan-04 12:30N 40°39' W 074°04'3 6.1
2018-Jan-04 11:58N 40°39' W 074°08'1 0.2
2018-Jan-04 09:11N 40°39' W 074°09'1 2.9
2018-Jan-04 08:58N 40°39' W 074°08'3 7.2
2018-Jan-04 08:30N 40°39' W 074°04'5 9.0
2018-Jan-04 08:00N 40°43' W 074°01'2 1.3
2018-Jan-04 06:33N 40°45' W 074°01'0 8.3
2018-Jan-04 06:30N 40°45' W 074°01'4 8.7
2018-Jan-04 06:00N 40°41' W 074°03'5 9.4
2018-Jan-04 05:29N 40°38' W 074°09'3 0.5
2018-Jan-03 23:29N 40°41' W 074°08'2 3.4
2018-Jan-03 23:00N 40°40' W 074°08'1 0.0
2018-Jan-03 00:01N 40°41' W 074°09'1 7.7
2018-Jan-02 23:56N 40°40' W 074°08'2 5.3
2018-Jan-02 23:29N 40°39' W 074°06'2 0.5
2018-Jan-02 18:30N 40°41' W 074°04'0 0.2
2018-Jan-02 18:00N 40°41' W 074°04'0 0.0
2018-Jan-02 17:30N 40°41' W 074°04'0 0.0
2018-Jan-02 16:58N 40°41' W 074°04'0 0.0
2018-Jan-02 16:28N 40°41' W 074°04'0 0.0
2018-Jan-02 15:59N 40°41' W 074°04'0 0.0
2018-Jan-02 15:30N 40°41' W 074°04'  
Track history (hours):
 
Tides and Currents Weather Stations Pressure Air Temp Water Temp Dewpoint Dewpoint Depression Visibility Wind Speed Wind Dir Waves Ship Positions

Solomon Sea

Owner: Kirby Offshore Marine, LLC, Staten Island, NY. More information available from US FCC via Universal Licensing System and Coast Guard Vessel Documentation Center.

Last reported at 2018-Jan-12 15:00 UTC. Time now 2018-Jan-18 15:32 UTC.
Position N 40°41' W 074°08'.

Length 29 m; draft 3.5 m.

Type: Towing. MMSI: 367360960.

Date/timePositionNaut miles runAvg speedWind from/ knotsBaromVisibWave heightAir tempDewpointWater temp
2018-Jan-12 15:00N 40°41' W 074°08'0 0.0
2018-Jan-12 14:30N 40°41' W 074°08'1 1.6
2018-Jan-12 14:00N 40°42' W 074°09'1 1.6
2018-Jan-12 13:29N 40°41' W 074°08'0 0.1
2018-Jan-12 13:00N 40°41' W 074°08'0 0.1
2018-Jan-12 12:30N 40°41' W 074°08'0 0.1
2018-Jan-12 12:00N 40°41' W 074°08'1 1.7
2018-Jan-12 11:30N 40°42' W 074°09'0 0.5
2018-Jan-12 11:00N 40°42' W 074°09'1 1.1
2018-Jan-12 10:30N 40°41' W 074°08'2 3.6
2018-Jan-12 10:00N 40°40' W 074°09'3 5.9
2018-Jan-12 09:30N 40°38' W 074°12'3 1.6
2018-Jan-12 07:49N 40°35' W 074°12'1 4.7
2018-Jan-12 07:30N 40°37' W 074°12'3 6.0
2018-Jan-12 07:00N 40°39' W 074°09'4 7.6
2018-Jan-12 06:30N 40°40' W 074°04'4 7.6
2018-Jan-12 06:00N 40°43' W 074°02'4 7.7
2018-Jan-12 05:30N 40°46' W 073°60'0 0.3
2018-Jan-12 05:00N 40°46' W 073°60'3 5.9
2018-Jan-12 04:30N 40°44' W 074°01'3 6.2
2018-Jan-12 04:00N 40°41' W 074°02'3 5.7
2018-Jan-12 03:30N 40°39' W 074°06'4 7.6
2018-Jan-12 03:00N 40°39' W 074°11'4 1.4
2018-Jan-12 00:12N 40°39' W 074°06'1 5.2
2018-Jan-11 23:58N 40°40' W 074°04'3 6.8
2018-Jan-11 23:30N 40°42' W 074°02'4 7.2
2018-Jan-11 22:59N 40°46' W 074°01'0 0.2
2018-Jan-11 22:09N 40°45' W 074°01'110.9
2018-Jan-11 22:00N 40°44' W 074°01'510.2
2018-Jan-11 21:30N 40°39' W 074°04'1 0.0
2018-Jan-11 07:32N 40°39' W 074°05'0 7.8
2018-Jan-11 07:29N 40°39' W 074°05'3 7.0
2018-Jan-11 07:00N 40°42' W 074°02'3 6.7
2018-Jan-11 06:30N 40°45' W 074°01'1 1.8
2018-Jan-11 06:00N 40°46' W 074°00'0 0.3
2018-Jan-11 05:30N 40°46' W 074°00'0 0.1
2018-Jan-11 04:56N 40°46' W 074°00'0 0.1
2018-Jan-11 04:28N 40°46' W 074°00'0 0.1
2018-Jan-11 04:00N 40°46' W 074°00'0 0.3
2018-Jan-11 03:30N 40°46' W 074°00'1 1.8
2018-Jan-11 03:00N 40°45' W 074°01'2 4.9
2018-Jan-11 02:30N 40°43' W 074°01'3 1.2
2018-Jan-10 23:58N 40°41' W 074°04'0 0.2
2018-Jan-10 23:30N 40°41' W 074°04'0 0.1
2018-Jan-10 22:05N 40°41' W 074°05'0 0.2
2018-Jan-10 21:54N 40°41' W 074°05'0 0.3
2018-Jan-10 21:25N 40°41' W 074°04'0 0.1
2018-Jan-10 20:56N 40°41' W 074°04'2 5.4
2018-Jan-10 20:30N 40°42' W 074°02'4 7.6
2018-Jan-10 20:00N 40°46' W 074°00'0 0.2
2018-Jan-10 19:30N 40°46' W 074°00'0 0.1
2018-Jan-10 18:58N 40°46' W 074°00'0 0.1
2018-Jan-10 18:30N 40°46' W 074°00'0 0.1
2018-Jan-10 18:00N 40°46' W 074°00'0 0.1
2018-Jan-10 17:30N 40°46' W 074°00'0 0.8
2018-Jan-10 16:57N 40°46' W 074°01'2 3.9
2018-Jan-10 16:30N 40°44' W 074°01'4 7.1
2018-Jan-10 16:00N 40°40' W 074°03'4 0.4
2018-Jan-10 06:36N 40°41' W 074°08'3 9.8
2018-Jan-10 06:20N 40°39' W 074°09'310.5
2018-Jan-10 06:00N 40°39' W 074°04'2 1.9
2018-Jan-10 05:09N 40°41' W 074°04'1 5.7
2018-Jan-10 05:00N 40°40' W 074°04'3 5.4
2018-Jan-10 04:30N 40°42' W 074°00'3 5.3
2018-Jan-10 04:00N 40°44' W 073°58'1 0.6
2018-Jan-10 02:15N 40°44' W 073°57'1 3.6
2018-Jan-10 02:00N 40°44' W 073°58'2 4.4
2018-Jan-10 01:30N 40°42' W 073°60'3 5.9
2018-Jan-10 01:00N 40°40' W 074°03'2 3.1
2018-Jan-10 00:29N 40°41' W 074°04'0 0.1
2018-Jan-09 23:45N 40°41' W 074°04'0 0.1
2018-Jan-09 23:22N 40°41' W 074°04'0 0.0
2018-Jan-09 23:00N 40°41' W 074°04'0 0.2
2018-Jan-09 21:41N 40°41' W 074°05'0 0.0
2018-Jan-09 21:29N 40°41' W 074°05'0 0.0
2018-Jan-09 21:00N 40°41' W 074°05'0 0.0
2018-Jan-09 20:05N 40°41' W 074°05'0 0.0
2018-Jan-09 19:55N 40°41' W 074°05'0 0.4
2018-Jan-09 19:25N 40°41' W 074°04'3 2.2
2018-Jan-09 17:58N 40°41' W 074°08'4 0.3
2018-Jan-09 05:45N 40°39' W 074°04'2 8.8
2018-Jan-09 05:29N 40°41' W 074°02'5 9.6
2018-Jan-09 05:00N 40°46' W 074°01'0 0.0
2018-Jan-08 16:22N 40°46' W 074°00'410.7
2018-Jan-08 16:00N 40°42' W 074°02'2 1.4
2018-Jan-08 14:22N 40°41' W 074°05'1 3.9
2018-Jan-08 14:00N 40°40' W 074°04'3 0.3
2018-Jan-08 03:05N 40°42' W 074°07'0 6.0
2018-Jan-08 03:00N 40°42' W 074°07'4 1.6
2018-Jan-08 00:26N 40°39' W 074°09'4 7.9
2018-Jan-07 23:58N 40°40' W 074°04'2 2.8
2018-Jan-07 23:25N 40°41' W 074°04'3 7.1
2018-Jan-07 23:00N 40°43' W 074°01'3 1.8
2018-Jan-07 21:34N 40°45' W 074°01'1 7.7
2018-Jan-07 21:30N 40°45' W 074°01'4 7.7
2018-Jan-07 21:00N 40°41' W 074°02'2 0.6
2018-Jan-07 17:47N 40°40' W 074°04'2 6.4
2018-Jan-07 17:30N 40°41' W 074°02'3 6.4
2018-Jan-07 17:00N 40°44' W 074°01'3 4.9
2018-Jan-07 16:29N 40°46' W 073°60'0 0.4
2018-Jan-07 15:23N 40°46' W 074°00'3 7.5
2018-Jan-07 15:00N 40°43' W 074°01'3 1.8
2018-Jan-07 13:11N 40°41' W 074°04'0 0.1
2018-Jan-07 12:57N 40°41' W 074°04'0 0.3
2018-Jan-07 12:29N 40°41' W 074°05'0 0.0
2018-Jan-07 12:00N 40°41' W 074°05'0 0.0
2018-Jan-07 10:21N 40°41' W 074°05'0 0.0
2018-Jan-07 08:21N 40°41' W 074°05'0 0.0
2018-Jan-07 07:57N 40°41' W 074°05'0 0.0
2018-Jan-07 07:25N 40°41' W 074°05'0 0.0
2018-Jan-07 07:00N 40°41' W 074°05'0 0.0
2018-Jan-07 06:29N 40°41' W 074°05'0 0.0
2018-Jan-07 05:59N 40°41' W 074°05'0 0.0
2018-Jan-07 05:25N 40°41' W 074°05'3 0.6
2018-Jan-07 01:14N 40°41' W 074°08'3 3.9
2018-Jan-07 00:21N 40°39' W 074°04'2 4.7
2018-Jan-06 23:59N 40°39' W 074°02'1 2.2
2018-Jan-06 23:18N 40°40' W 074°00'0 0.0
2018-Jan-06 22:57N 40°40' W 074°00'0 0.0
2018-Jan-06 22:27N 40°40' W 074°00'1 2.2
2018-Jan-06 22:00N 40°39' W 074°01'5 0.4
2018-Jan-06 07:24N 40°41' W 074°08'3 4.6
2018-Jan-06 06:49N 40°39' W 074°06'3 8.3
2018-Jan-06 06:30N 40°40' W 074°03'2 4.1
2018-Jan-06 06:00N 40°40' W 074°00'0 0.9
2018-Jan-06 05:30N 40°40' W 074°01'3 5.2
2018-Jan-06 05:00N 40°38' W 074°03'1 1.2
2018-Jan-06 04:21N 40°37' W 074°03'0 0.0
2018-Jan-05 21:35N 40°37' W 074°03'111.5
2018-Jan-05 21:30N 40°38' W 074°04'4 7.5
2018-Jan-05 20:57N 40°40' W 074°09'2 0.6
2018-Jan-05 17:14N 40°42' W 074°09'0 0.0
2018-Jan-05 16:46N 40°42' W 074°09'0 0.0
2018-Jan-05 16:29N 40°42' W 074°09'0 0.0
2018-Jan-05 15:38N 40°42' W 074°09'0 0.0
2018-Jan-05 15:30N 40°42' W 074°09'0 0.0
2018-Jan-05 14:48N 40°42' W 074°09'0 0.0
2018-Jan-05 14:29N 40°42' W 074°09'0 0.0
2018-Jan-05 05:45N 40°42' W 074°09'0 0.0
2018-Jan-05 05:28N 40°42' W 074°09'0 0.0
2018-Jan-05 04:35N 40°42' W 074°09'0 0.0
2018-Jan-05 04:26N 40°42' W 074°09'0 0.0
2018-Jan-05 03:36N 40°42' W 074°09'0 0.0
2018-Jan-05 03:30N 40°42' W 074°09'0 0.0
2018-Jan-05 02:55N 40°42' W 074°09'0 0.0
2018-Jan-05 02:22N 40°42' W 074°09'0 0.0
2018-Jan-05 01:55N 40°42' W 074°09'1 0.1
2018-Jan-04 16:07N 40°42' W 074°08'1 8.0
2018-Jan-04 16:00N 40°41' W 074°09'3 5.6
2018-Jan-04 15:29N 40°39' W 074°06'4 8.2
2018-Jan-04 15:00N 40°42' W 074°02'5 8.1
2018-Jan-04 14:27N 40°46' W 074°00'1 0.8
2018-Jan-04 13:43N 40°46' W 073°60'0 0.5
2018-Jan-04 13:30N 40°46' W 073°60'4 7.8
2018-Jan-04 13:00N 40°43' W 074°02'4 8.2
2018-Jan-04 12:30N 40°39' W 074°04'3 6.1
2018-Jan-04 11:58N 40°39' W 074°08'1 0.2
2018-Jan-04 09:11N 40°39' W 074°09'1 2.9
2018-Jan-04 08:58N 40°39' W 074°08'3 7.2
2018-Jan-04 08:30N 40°39' W 074°04'5 9.0
2018-Jan-04 08:00N 40°43' W 074°01'2 1.3
2018-Jan-04 06:33N 40°45' W 074°01'0 8.3
2018-Jan-04 06:30N 40°45' W 074°01'4 8.7
2018-Jan-04 06:00N 40°41' W 074°03'5 9.4
2018-Jan-04 05:29N 40°38' W 074°09'3 0.5
2018-Jan-03 23:29N 40°41' W 074°08'2 3.4
2018-Jan-03 23:00N 40°40' W 074°08'1 0.0
2018-Jan-03 00:01N 40°41' W 074°09'1 7.7
2018-Jan-02 23:56N 40°40' W 074°08'2 5.3
2018-Jan-02 23:29N 40°39' W 074°06'2 0.5
2018-Jan-02 18:30N 40°41' W 074°04'0 0.2
2018-Jan-02 18:00N 40°41' W 074°04'0 0.0
2018-Jan-02 17:30N 40°41' W 074°04'0 0.0
2018-Jan-02 16:58N 40°41' W 074°04'0 0.0
2018-Jan-02 16:28N 40°41' W 074°04'0 0.0
2018-Jan-02 15:59N 40°41' W 074°04'0 0.0
2018-Jan-02 15:30N 40°41' W 074°04'  

Dump ship's entire track history